Airfield :
LOGIN :

Register | Disclaimer

   EN    FR    IT 

 










Legend :    VFR   Marginal VFR   IFR   Intensive IFR   Very Intensive IFR
Visi :
Ceiling :
>= 8 km
>= 3000ft
5 to 8 km
1000 to 3000 ft
1500m to 5 km
500 to 1000 ft
800 to 1500m
200 to 500 ft
< 800m
< 200 ft
Symbols :   Thunderstorms  Fog  Heavy snow  Heavy precipitations  Wind > 20 kt
SIGMETs :     Misc.  Thunderstorms  Icing  Turbulence  Mountain Waves  Volcanic Ashes






- Airport Elevation : 1768 ft


LEHC - Huesca Pirineos

CURRENT METAR :
  • 200430Z AUTO VRB02KT CAVOK 01/00 Q1025

EXPIRED METARs :
  • 200400Z AUTO VRB01KT CAVOK M01/M02 Q1025
  • 200330Z AUTO 36002KT CAVOK 00/M01 Q1025
  • 200300Z AUTO 02003KT CAVOK 02/00 Q1025
  • 200230Z AUTO 02003KT CAVOK 03/01 Q1026
  • 200200Z AUTO 01003KT 340V040 CAVOK 03/01 Q1026

TAF TAF LEHC
Valid from the 20 at 03:00 until the 21 at 03:00 UTC


200200Z 2003/2103 07009KT 9999 FEW040 TX16/2013Z TN02/2006Z
TEMPO 2014/2018 27009KT
BECMG 2018/2020 VRB04KT



MET'MAP, your aeronautical weather chart ! - Copyright ORBIFLY December 2007 - Disclaimer

ORBIFLY MET'MAP TEAM :

Programming & Development : Alexandra Zaïnal
Concept & original design : Baudouin d'Aumeries
Assistance for programming : Marc-Olivier Méhu
Technical & hardware support : Manuel Goepfert

Contact : metmap@orbifly.com




SOURCES & CREDITS :

   NOAA